Time;durP1;ratioP1;P1;durP2;ratioP2;P2;SDS_P1;SDS_P2;PMS_P1;PMS_P2;Temp;Humidity;BMP_temperature;BMP_pressure;BME280_temperature;BME280_humidity;BME280_pressure;Samples;Min_cycle;Max_cycle;Signal;HPM_P1;HPM_P2
2022/10/19 00:00:25;;;;;;;;;;;9.70;99.90;;;;;;5092763;28;19924;-88
2022/10/19 00:02:51;;;;;;;;;;;9.70;99.90;;;;;;5074268;28;19924;-88
2022/10/19 00:05:17;;;;;;;;;;;9.70;99.90;;;;;;5090850;28;19931;-88
2022/10/19 00:07:42;;;;;;;;;;;10.00;99.90;;;;;;5087199;28;20003;-88
2022/10/19 00:10:08;;;;;;;;;;;9.60;99.90;;;;;;5090429;28;19927;-88
2022/10/19 00:12:34;;;;;;;;;;;9.70;99.90;;;;;;5072827;28;19928;-88
2022/10/19 00:15:00;;;;;;;;;;;9.80;99.90;;;;;;5070638;28;19925;-88
2022/10/19 00:17:28;;;;;;;;;;;10.30;99.90;;;;;;5086656;28;19931;-88
2022/10/19 00:19:54;;;;;;;;;;;8.60;99.90;;;;;;5091910;28;19924;-88
2022/10/19 00:22:20;;;;;;;;;;;9.90;99.90;;;;;;5090719;28;19924;-89
2022/10/19 00:24:46;;;;;;;;;;;9.70;99.90;;;;;;5120727;28;20283;-88
2022/10/19 00:27:14;;;;;;;;;;;9.70;99.90;;;;;;5090576;28;20375;-89
2022/10/19 00:29:39;;;;;;;;;;;9.70;99.90;;;;;;5086439;28;19934;-88
2022/10/19 00:32:07;;;;;;;;;;;10.80;99.90;;;;;;5099235;28;19924;-88
2022/10/19 00:34:33;;;;;;;;;;;9.70;99.90;;;;;;5073153;28;20318;-87
2022/10/19 00:36:59;;;;;;;;;;;9.70;99.90;;;;;;5097492;28;19935;-88
2022/10/19 00:39:25;;;;;;;;;;;9.70;99.90;;;;;;5098534;28;19959;-88
2022/10/19 00:41:55;;;;;;;;;;;9.80;99.90;;;;;;5085888;28;19951;-88
2022/10/19 00:44:30;;;;;;;;;;;9.90;99.90;;;;;;5079136;28;19924;-88
2022/10/19 00:47:00;;;;;;;;;;;9.80;99.90;;;;;;5103382;27;19933;-88
2022/10/19 00:49:28;;;;;;;;;;;8.40;99.90;;;;;;5076323;28;19924;-89
2022/10/19 00:52:01;;;;;;;;;;;9.70;99.90;;;;;;5076152;28;19928;-88
2022/10/19 00:54:27;;;;;;;;;;;9.70;99.90;;;;;;5075228;28;20279;-88
2022/10/19 00:56:55;;;;;;;;;;;9.60;99.90;;;;;;5105645;27;19944;-89
2022/10/19 00:59:23;;;;;;;;;;;9.70;99.90;;;;;;5102540;27;19967;-89
2022/10/19 01:01:52;;;;;;;;;;;10.00;99.90;;;;;;5074999;28;20013;-88
2022/10/19 01:04:19;;;;;;;;;;;9.80;99.90;;;;;;5076677;28;19931;-88
2022/10/19 01:06:45;;;;;;;;;;;9.10;99.90;;;;;;5118241;27;20070;-89
2022/10/19 01:09:14;;;;;;;;;;;9.90;99.90;;;;;;5093706;28;20014;-88
2022/10/19 01:11:51;;;;;;;;;;;10.60;99.90;;;;;;5075723;28;19959;-88
2022/10/19 01:14:26;;;;;;;;;;;10.00;99.90;;;;;;5081685;28;20069;-88
2022/10/19 01:17:02;;;;;;;;;;;9.80;99.90;;;;;;5072566;28;19924;-88
2022/10/19 01:19:28;;;;;;;;;;;9.90;99.90;;;;;;5079138;28;19963;-88
2022/10/19 01:21:59;;;;;;;;;;;8.80;99.90;;;;;;5077063;28;19990;-88
2022/10/19 01:24:34;;;;;;;;;;;10.30;99.90;;;;;;5077747;28;19955;-88
2022/10/19 01:27:09;;;;;;;;;;;9.90;99.90;;;;;;5077274;28;19924;-89
2022/10/19 01:29:53;;;;;;;;;;;10.20;99.90;;;;;;5108846;27;19935;-88
2022/10/19 01:32:25;;;;;;;;;;;11.80;99.90;;;;;;5070904;28;19932;-88
2022/10/19 01:34:57;;;;;;;;;;;9.90;99.90;;;;;;5073905;28;19924;-89
2022/10/19 01:37:41;;;;;;;;;;;9.90;99.90;;;;;;5094708;28;19971;-89
2022/10/19 01:40:14;;;;;;;;;;;9.90;99.90;;;;;;5112679;27;19974;-89
2022/10/19 01:42:44;;;;;;;;;;;9.90;99.90;;;;;;5076937;28;19931;-89
2022/10/19 01:45:16;;;;;;;;;;;9.90;99.90;;;;;;5085977;28;19981;-88
2022/10/19 01:48:10;;;;;;;;;;;9.90;99.90;;;;;;5074604;28;20019;-88
2022/10/19 01:50:35;;;;;;;;;;;9.90;99.90;;;;;;5074453;28;19924;-88
2022/10/19 01:53:03;;;;;;;;;;;9.90;99.90;;;;;;5083005;28;19924;-89
2022/10/19 01:55:31;;;;;;;;;;;9.90;99.90;;;;;;5071888;28;19934;-89
2022/10/19 01:58:09;;;;;;;;;;;8.30;99.90;;;;;;5108289;28;19947;-89
2022/10/19 02:00:36;;;;;;;;;;;9.90;99.90;;;;;;5073015;28;19924;-88
2022/10/19 02:03:02;;;;;;;;;;;9.90;99.90;;;;;;5076609;28;20309;-88
2022/10/19 02:05:30;;;;;;;;;;;9.90;99.90;;;;;;5093788;28;20383;-88
2022/10/19 02:07:58;;;;;;;;;;;9.90;99.90;;;;;;5083270;28;19935;-88
2022/10/19 02:10:25;;;;;;;;;;;9.90;99.90;;;;;;5094212;28;19924;-89
2022/10/19 02:12:51;;;;;;;;;;;9.80;99.90;;;;;;5094450;28;19923;-88
2022/10/19 02:15:19;;;;;;;;;;;9.80;99.90;;;;;;5088874;28;19924;-88
2022/10/19 02:17:46;;;;;;;;;;;9.80;99.90;;;;;;5074624;28;19928;-88
2022/10/19 02:20:12;;;;;;;;;;;10.40;99.90;;;;;;5115908;27;19939;-89
2022/10/19 02:22:40;;;;;;;;;;;9.90;99.90;;;;;;5081024;28;19936;-88
2022/10/19 02:25:06;;;;;;;;;;;9.90;99.90;;;;;;5079864;28;19927;-88
2022/10/19 02:27:33;;;;;;;;;;;10.00;99.90;;;;;;5081972;28;19983;-88
2022/10/19 02:29:59;;;;;;;;;;;11.90;99.90;;;;;;5075290;28;19928;-88
2022/10/19 02:32:25;;;;;;;;;;;9.90;99.90;;;;;;5081107;28;19924;-87
2022/10/19 02:34:50;;;;;;;;;;;9.90;99.90;;;;;;5078200;28;19924;-89
2022/10/19 02:37:16;;;;;;;;;;;10.20;99.90;;;;;;5094709;28;20014;-88
2022/10/19 02:39:42;;;;;;;;;;;9.90;99.90;;;;;;5073153;28;20026;-89
2022/10/19 02:42:13;;;;;;;;;;;9.80;99.90;;;;;;5076994;28;19968;-89
2022/10/19 02:44:48;;;;;;;;;;;9.80;99.90;;;;;;5081337;28;19927;-89
2022/10/19 02:47:17;;;;;;;;;;;9.80;99.90;;;;;;5077444;28;19924;-88
2022/10/19 02:49:44;;;;;;;;;;;9.90;99.90;;;;;;5103351;28;20103;-89
2022/10/19 02:52:10;;;;;;;;;;;9.90;99.90;;;;;;5076351;28;19928;-88
2022/10/19 02:54:37;;;;;;;;;;;9.90;99.90;;;;;;5076988;28;19932;-89
2022/10/19 02:57:07;;;;;;;;;;;9.80;99.90;;;;;;5077496;28;20380;-88
2022/10/19 02:59:32;;;;;;;;;;;10.10;99.90;;;;;;5099203;28;20015;-88
2022/10/19 03:01:58;;;;;;;;;;;10.10;99.90;;;;;;5109209;28;19972;-89
2022/10/19 03:04:23;;;;;;;;;;;9.80;99.90;;;;;;5064819;28;19924;-88
2022/10/19 03:06:49;;;;;;;;;;;9.70;99.90;;;;;;5077678;28;19924;-89
2022/10/19 03:09:15;;;;;;;;;;;9.70;99.90;;;;;;5058981;28;19924;-89
2022/10/19 03:11:40;;;;;;;;;;;9.90;99.90;;;;;;5083635;28;20257;-88
2022/10/19 03:14:06;;;;;;;;;;;9.60;99.90;;;;;;5105967;27;19925;-88
2022/10/19 03:16:32;;;;;;;;;;;10.00;99.90;;;;;;5065197;28;19924;-89
2022/10/19 03:19:00;;;;;;;;;;;10.00;99.90;;;;;;5079205;28;19924;-89
2022/10/19 03:21:25;;;;;;;;;;;9.50;99.90;;;;;;5091872;28;19924;-88
2022/10/19 03:23:53;;;;;;;;;;;8.30;99.90;;;;;;5106573;28;19924;-88
2022/10/19 03:26:19;;;;;;;;;;;9.40;99.90;;;;;;5066454;28;19986;-88
2022/10/19 03:28:45;;;;;;;;;;;9.30;99.90;;;;;;5084099;28;19924;-88
2022/10/19 03:31:10;;;;;;;;;;;9.20;99.90;;;;;;5074003;28;19969;-89
2022/10/19 03:33:36;;;;;;;;;;;9.10;99.90;;;;;;5105185;28;19969;-88
2022/10/19 03:36:15;;;;;;;;;;;9.00;99.90;;;;;;5099105;28;19924;-88
2022/10/19 03:38:41;;;;;;;;;;;9.10;99.90;;;;;;5087803;28;19928;-88
2022/10/19 03:41:07;;;;;;;;;;;9.00;99.90;;;;;;5100688;28;19996;-88
2022/10/19 03:43:33;;;;;;;;;;;8.90;99.90;;;;;;5109713;28;19933;-88
2022/10/19 03:45:58;;;;;;;;;;;8.90;99.90;;;;;;5074403;28;19939;-88
2022/10/19 03:48:24;;;;;;;;;;;8.90;99.90;;;;;;5059509;28;20379;-87
2022/10/19 03:51:06;;;;;;;;;;;8.80;99.90;;;;;;5057656;28;20385;-87
2022/10/19 03:53:33;;;;;;;;;;;8.80;99.90;;;;;;5083831;28;19924;-88
2022/10/19 03:56:04;;;;;;;;;;;8.80;99.90;;;;;;5096027;28;19973;-88
2022/10/19 03:58:34;;;;;;;;;;;8.80;99.90;;;;;;5081781;28;19930;-87
2022/10/19 04:01:00;;;;;;;;;;;8.80;99.90;;;;;;5076854;28;20026;-88
2022/10/19 04:03:26;;;;;;;;;;;8.80;99.90;;;;;;5093247;28;20089;-88
2022/10/19 04:05:59;;;;;;;;;;;8.80;99.90;;;;;;5083811;28;19976;-88
2022/10/19 04:08:25;;;;;;;;;;;9.10;99.90;;;;;;5122113;28;20003;-89
2022/10/19 04:10:50;;;;;;;;;;;8.90;99.90;;;;;;5091622;28;20078;-89
2022/10/19 04:13:16;;;;;;;;;;;8.80;99.90;;;;;;5097341;28;20265;-89
2022/10/19 04:15:47;;;;;;;;;;;8.10;99.90;;;;;;5075438;28;20015;-89
2022/10/19 04:18:13;;;;;;;;;;;7.40;99.90;;;;;;5087803;28;19924;-89
2022/10/19 04:20:41;;;;;;;;;;;9.20;99.90;;;;;;5085471;28;20435;-88
2022/10/19 04:23:07;;;;;;;;;;;9.10;99.90;;;;;;5083690;28;19984;-89
2022/10/19 04:25:32;;;;;;;;;;;9.20;99.90;;;;;;5077607;28;19928;-88
2022/10/19 04:28:01;;;;;;;;;;;9.20;99.90;;;;;;5082590;28;20017;-89
2022/10/19 04:30:26;;;;;;;;;;;9.10;99.90;;;;;;5097240;28;20288;-88
2022/10/19 04:32:52;;;;;;;;;;;9.30;99.90;;;;;;5134192;27;20385;-89
2022/10/19 04:35:18;;;;;;;;;;;9.20;99.90;;;;;;5088771;28;19976;-88
2022/10/19 04:37:43;;;;;;;;;;;9.20;99.90;;;;;;5083132;28;19931;-89
2022/10/19 04:40:09;;;;;;;;;;;9.40;99.90;;;;;;5111526;27;19924;-89
2022/10/19 04:42:35;;;;;;;;;;;9.60;99.90;;;;;;5087743;28;19969;-89
2022/10/19 04:45:01;;;;;;;;;;;9.50;99.90;;;;;;5080837;28;20321;-88
2022/10/19 04:47:27;;;;;;;;;;;9.40;99.90;;;;;;5075046;28;19928;-86
2022/10/19 04:49:53;;;;;;;;;;;9.50;99.90;;;;;;5071780;28;19925;-87
2022/10/19 04:52:19;;;;;;;;;;;9.50;99.90;;;;;;5077220;28;19940;-87
2022/10/19 04:54:44;;;;;;;;;;;9.50;99.90;;;;;;5079261;28;19932;-87
2022/10/19 04:57:10;;;;;;;;;;;9.50;99.90;;;;;;5078166;28;19930;-87
2022/10/19 04:59:36;;;;;;;;;;;9.50;99.90;;;;;;5077801;28;19931;-87
2022/10/19 05:02:01;;;;;;;;;;;10.20;99.90;;;;;;5084859;28;19950;-88
2022/10/19 05:04:27;;;;;;;;;;;9.50;99.90;;;;;;5085630;28;19931;-88
2022/10/19 05:06:53;;;;;;;;;;;9.70;99.90;;;;;;5078818;28;19924;-88
2022/10/19 05:09:18;;;;;;;;;;;9.50;99.90;;;;;;5080662;28;19939;-88
2022/10/19 05:11:44;;;;;;;;;;;9.40;99.90;;;;;;5086646;28;19930;-88
2022/10/19 05:14:10;;;;;;;;;;;9.40;99.90;;;;;;5076889;28;19924;-88
2022/10/19 05:16:38;;;;;;;;;;;9.60;99.90;;;;;;5077970;28;20014;-88
2022/10/19 05:19:04;;;;;;;;;;;9.40;99.90;;;;;;5119322;27;20355;-88
2022/10/19 05:21:29;;;;;;;;;;;9.40;99.90;;;;;;5062269;28;19968;-88
2022/10/19 05:23:55;;;;;;;;;;;9.50;99.90;;;;;;5077484;28;19928;-88
2022/10/19 05:26:24;;;;;;;;;;;9.50;99.90;;;;;;5105828;28;19953;-88
2022/10/19 05:28:55;;;;;;;;;;;9.60;99.90;;;;;;5083133;28;19924;-88
2022/10/19 05:31:25;;;;;;;;;;;9.50;99.90;;;;;;5081068;28;20406;-88
2022/10/19 05:33:50;;;;;;;;;;;9.80;99.90;;;;;;5120216;27;19986;-89
2022/10/19 05:36:24;;;;;;;;;;;9.50;99.90;;;;;;5068180;28;19970;-90
2022/10/19 05:38:51;;;;;;;;;;;9.60;99.90;;;;;;5093830;28;20291;-88
2022/10/19 05:41:17;;;;;;;;;;;9.60;99.90;;;;;;5077313;28;19947;-88
2022/10/19 05:43:44;;;;;;;;;;;9.60;99.90;;;;;;5078912;28;19923;-88
2022/10/19 05:46:11;;;;;;;;;;;9.50;99.90;;;;;;5090049;28;19924;-87
2022/10/19 05:48:37;;;;;;;;;;;9.80;99.90;;;;;;5078296;28;19928;-87
2022/10/19 05:51:04;;;;;;;;;;;9.70;99.90;;;;;;5080965;28;20040;-87
2022/10/19 05:53:32;;;;;;;;;;;9.50;99.90;;;;;;5118764;27;20736;-88
2022/10/19 05:56:00;;;;;;;;;;;9.70;99.90;;;;;;5080280;28;19924;-87
2022/10/19 05:58:28;;;;;;;;;;;9.60;99.90;;;;;;5085786;28;19997;-89
2022/10/19 06:00:55;;;;;;;;;;;11.90;99.90;;;;;;5077869;28;19931;-87
2022/10/19 06:03:24;;;;;;;;;;;9.50;99.90;;;;;;5077454;28;19932;-89
2022/10/19 06:05:50;;;;;;;;;;;8.20;99.90;;;;;;5069055;28;20326;-87
2022/10/19 06:08:16;;;;;;;;;;;9.60;99.90;;;;;;5058857;28;19925;-91
2022/10/19 06:10:42;;;;;;;;;;;10.10;99.90;;;;;;5075385;28;19981;-88
2022/10/19 06:13:11;;;;;;;;;;;9.50;99.90;;;;;;5068535;28;20011;-87
2022/10/19 06:15:39;;;;;;;;;;;9.40;99.90;;;;;;5110859;28;19929;-87
2022/10/19 06:18:26;;;;;;;;;;;;;;;;;;;;;
2022/10/19 06:21:05;;;;;;;;;;;9.40;99.90;;;;;;5085428;28;19924;-89
2022/10/19 06:23:33;;;;;;;;;;;9.40;99.90;;;;;;5077894;28;19924;-90
2022/10/19 06:26:01;;;;;;;;;;;9.50;99.90;;;;;;5088171;28;19928;-88
2022/10/19 06:28:27;;;;;;;;;;;9.50;99.90;;;;;;5079061;28;19963;-90
2022/10/19 06:30:52;;;;;;;;;;;9.40;99.90;;;;;;5086603;28;20394;-91
2022/10/19 06:33:18;;;;;;;;;;;9.40;99.90;;;;;;5076154;28;19928;-89
2022/10/19 06:35:46;;;;;;;;;;;9.60;99.90;;;;;;5106033;28;20008;-90
2022/10/19 06:38:12;;;;;;;;;;;9.60;99.90;;;;;;5097887;28;20295;-89
2022/10/19 06:40:43;;;;;;;;;;;9.70;99.90;;;;;;5090798;28;19979;-91
2022/10/19 06:43:09;;;;;;;;;;;9.60;99.90;;;;;;5081217;28;19981;-90
2022/10/19 06:45:38;;;;;;;;;;;9.60;99.90;;;;;;5080812;28;20002;-90
2022/10/19 06:48:04;;;;;;;;;;;9.60;99.90;;;;;;5113191;27;19930;-88
2022/10/19 06:50:32;;;;;;;;;;;8.00;99.90;;;;;;5083918;28;20261;-89
2022/10/19 06:52:58;;;;;;;;;;;9.70;99.90;;;;;;5086832;28;19924;-89
2022/10/19 06:55:24;;;;;;;;;;;10.30;99.90;;;;;;5080778;28;19933;-91
2022/10/19 06:57:52;;;;;;;;;;;11.70;99.90;;;;;;5076519;28;19931;-90
2022/10/19 07:00:18;;;;;;;;;;;8.70;99.90;;;;;;5078310;28;19928;-88
2022/10/19 07:02:44;;;;;;;;;;;9.90;99.90;;;;;;5070914;28;19928;-89
2022/10/19 07:05:09;;;;;;;;;;;9.90;99.90;;;;;;5072109;28;19927;-88
2022/10/19 07:07:37;;;;;;;;;;;10.00;99.90;;;;;;5104750;27;20007;-90
2022/10/19 07:10:03;;;;;;;;;;;10.10;99.90;;;;;;5078740;28;20353;-88
2022/10/19 07:12:29;;;;;;;;;;;8.40;99.90;;;;;;5075290;28;19927;-88
2022/10/19 07:14:55;;;;;;;;;;;10.10;99.90;;;;;;5074390;28;19928;-88
2022/10/19 07:17:20;;;;;;;;;;;10.10;99.90;;;;;;5087293;28;20014;-89
2022/10/19 07:19:46;;;;;;;;;;;10.20;99.90;;;;;;5077583;28;20275;-88
2022/10/19 07:22:12;;;;;;;;;;;10.10;99.90;;;;;;5115981;27;19932;-89
2022/10/19 07:24:37;;;;;;;;;;;8.90;99.90;;;;;;5077315;28;20015;-88
2022/10/19 07:27:03;;;;;;;;;;;10.60;99.90;;;;;;5094380;28;19931;-88
2022/10/19 07:29:29;;;;;;;;;;;10.60;99.90;;;;;;5098782;28;19924;-88
2022/10/19 07:31:55;;;;;;;;;;;11.00;99.90;;;;;;5077118;28;19928;-89
2022/10/19 07:34:20;;;;;;;;;;;10.40;99.90;;;;;;5074971;28;20382;-90
2022/10/19 07:36:53;;;;;;;;;;;10.40;99.90;;;;;;5073217;28;19951;-90
2022/10/19 07:39:19;;;;;;;;;;;10.40;99.90;;;;;;5109372;28;20019;-89
2022/10/19 07:41:45;;;;;;;;;;;10.50;99.90;;;;;;5076855;28;20379;-90
2022/10/19 07:44:11;;;;;;;;;;;10.00;99.90;;;;;;5074922;28;19930;-90
2022/10/19 07:46:38;;;;;;;;;;;10.70;99.90;;;;;;5076175;28;19993;-89
2022/10/19 07:49:07;;;;;;;;;;;10.80;99.90;;;;;;5113457;28;19931;-89
2022/10/19 07:51:33;;;;;;;;;;;11.00;99.90;;;;;;5089978;28;20320;-89
2022/10/19 07:54:01;;;;;;;;;;;10.80;99.90;;;;;;5091133;28;19975;-90
2022/10/19 07:56:44;;;;;;;;;;;11.00;99.90;;;;;;5096535;28;19924;-92
2022/10/19 07:59:15;;;;;;;;;;;10.70;99.90;;;;;;5106178;28;19924;-90
2022/10/19 08:01:41;;;;;;;;;;;11.30;99.90;;;;;;5059828;28;19932;-92
2022/10/19 08:04:09;;;;;;;;;;;10.90;99.90;;;;;;5075079;28;20052;-90
2022/10/19 08:06:42;;;;;;;;;;;10.90;99.90;;;;;;5076275;28;20265;-92
2022/10/19 08:09:10;;;;;;;;;;;11.00;99.90;;;;;;5063793;28;19931;-91
2022/10/19 08:11:36;;;;;;;;;;;11.10;99.90;;;;;;5079280;28;19924;-89
2022/10/19 08:14:05;;;;;;;;;;;11.80;99.90;;;;;;5078381;28;19924;-89
2022/10/19 08:16:44;;;;;;;;;;;10.90;99.90;;;;;;5101780;28;19924;-90
2022/10/19 08:19:11;;;;;;;;;;;11.30;99.90;;;;;;5093413;28;19931;-90
2022/10/19 08:21:37;;;;;;;;;;;11.20;99.90;;;;;;5078944;28;19924;-90
2022/10/19 08:24:03;;;;;;;;;;;11.20;99.90;;;;;;5077946;28;20007;-88
2022/10/19 08:26:33;;;;;;;;;;;11.50;99.90;;;;;;5078538;28;19928;-90
2022/10/19 08:29:03;;;;;;;;;;;11.60;99.90;;;;;;5061505;28;19958;-88
2022/10/19 08:31:32;;;;;;;;;;;11.40;99.90;;;;;;5077534;28;20021;-91
2022/10/19 08:34:06;;;;;;;;;;;12.20;99.90;;;;;;5079490;28;19931;-92
2022/10/19 08:36:50;;;;;;;;;;;11.60;99.90;;;;;;5107966;28;19924;-91
2022/10/19 08:39:16;;;;;;;;;;;11.80;99.90;;;;;;5077064;28;19950;-92
2022/10/19 08:41:51;;;;;;;;;;;11.60;99.90;;;;;;5111286;27;19973;-90
2022/10/19 08:44:41;;;;;;;;;;;11.70;99.90;;;;;;5090799;28;20359;-89
2022/10/19 08:47:31;;;;;;;;;;;11.70;99.90;;;;;;5074982;28;19993;-89
2022/10/19 08:50:00;;;;;;;;;;;11.60;99.90;;;;;;5108164;28;19962;-92
2022/10/19 08:53:10;;;;;;;;;;;11.90;99.90;;;;;;5079655;28;19924;-93
2022/10/19 08:55:55;;;;;;;;;;;12.10;99.90;;;;;;5090784;28;20336;-92
2022/10/19 08:58:29;;;;;;;;;;;11.70;99.90;;;;;;5080335;28;19924;-94
2022/10/19 09:04:34;;;;;;;;;;;12.30;99.90;;;;;;5094233;28;19935;-96
2022/10/19 09:07:18;;;;;;;;;;;12.70;99.90;;;;;;5057898;28;19967;-96
2022/10/19 09:10:10;;;;;;;;;;;12.20;99.90;;;;;;5052956;28;19955;-96
2022/10/19 09:12:54;;;;;;;;;;;11.90;99.90;;;;;;5044222;28;19924;-96
2022/10/19 09:23:54;;;;;;;;;;;12.00;99.90;;;;;;5334325;22;19978;-92
2022/10/19 09:26:28;;;;;;;;;;;12.40;99.90;;;;;;5053634;28;19930;-92
2022/10/19 09:29:16;;;;;;;;;;;12.10;99.90;;;;;;5051075;28;19928;-87
2022/10/19 09:31:45;;;;;;;;;;;12.20;99.90;;;;;;5047220;28;19924;-88
2022/10/19 09:34:13;;;;;;;;;;;12.10;99.90;;;;;;5070151;28;19932;-89
2022/10/19 09:36:41;;;;;;;;;;;12.20;99.90;;;;;;5051762;28;19924;-88
2022/10/19 09:39:09;;;;;;;;;;;12.10;99.90;;;;;;5054744;28;19924;-88
2022/10/19 09:41:35;;;;;;;;;;;12.60;99.90;;;;;;5062028;28;19986;-88
2022/10/19 09:44:01;;;;;;;;;;;12.20;99.90;;;;;;5075038;28;19964;-86
2022/10/19 09:46:39;;;;;;;;;;;12.10;99.90;;;;;;5033303;28;19963;-88
2022/10/19 09:49:07;;;;;;;;;;;11.40;99.90;;;;;;5047499;28;19925;-87
2022/10/19 09:51:43;;;;;;;;;;;12.20;99.90;;;;;;5047672;28;19932;-87
2022/10/19 09:54:21;;;;;;;;;;;12.10;99.90;;;;;;5052043;28;20363;-89
2022/10/19 09:56:51;;;;;;;;;;;12.20;99.90;;;;;;5052572;28;19925;-88
2022/10/19 09:59:20;;;;;;;;;;;12.30;99.90;;;;;;5056826;28;20421;-87
2022/10/19 10:01:48;;;;;;;;;;;11.00;99.90;;;;;;5065973;28;20024;-89
2022/10/19 10:04:22;;;;;;;;;;;12.70;99.90;;;;;;5071922;28;19924;-89
2022/10/19 10:06:47;;;;;;;;;;;12.30;99.90;;;;;;5063349;28;20209;-89
2022/10/19 10:09:21;;;;;;;;;;;12.30;99.90;;;;;;5058730;28;19924;-89
2022/10/19 10:11:49;;;;;;;;;;;12.30;99.90;;;;;;5072718;28;19963;-89
2022/10/19 10:14:26;;;;;;;;;;;12.90;99.90;;;;;;5052032;28;20347;-87
2022/10/19 10:16:58;;;;;;;;;;;12.30;99.90;;;;;;5052306;28;19950;-88
2022/10/19 10:19:29;;;;;;;;;;;12.50;99.90;;;;;;5070008;28;20263;-87
2022/10/19 10:21:57;;;;;;;;;;;12.50;99.90;;;;;;5052469;28;19924;-87
2022/10/19 10:24:25;;;;;;;;;;;10.90;99.90;;;;;;5048806;28;19978;-88
2022/10/19 10:26:54;;;;;;;;;;;12.40;99.90;;;;;;5053994;28;19934;-87
2022/10/19 10:29:27;;;;;;;;;;;12.50;99.90;;;;;;5037583;28;19971;-87
2022/10/19 10:32:13;;;;;;;;;;;12.50;99.90;;;;;;5068499;28;20352;-88
2022/10/19 10:34:45;;;;;;;;;;;12.50;99.90;;;;;;5059908;28;19951;-86
2022/10/19 10:37:19;;;;;;;;;;;12.60;99.90;;;;;;5050698;28;19925;-87
2022/10/19 10:39:45;;;;;;;;;;;12.50;99.90;;;;;;5056710;28;19924;-87
2022/10/19 10:42:18;;;;;;;;;;;12.60;99.90;;;;;;5071582;28;19931;-87
2022/10/19 10:44:46;;;;;;;;;;;12.70;99.90;;;;;;5058371;28;19935;-86
2022/10/19 10:47:13;;;;;;;;;;;12.80;99.90;;;;;;5072616;28;20015;-87
2022/10/19 10:49:41;;;;;;;;;;;12.70;99.90;;;;;;5054847;28;19940;-88
2022/10/19 10:52:12;;;;;;;;;;;12.70;99.90;;;;;;5069567;28;19932;-86
2022/10/19 10:54:38;;;;;;;;;;;12.70;99.90;;;;;;5055144;28;19975;-87
2022/10/19 10:57:14;;;;;;;;;;;12.80;99.90;;;;;;5054918;28;19956;-87
2022/10/19 10:59:53;;;;;;;;;;;12.80;99.90;;;;;;5052764;28;20015;-87
2022/10/19 11:02:28;;;;;;;;;;;12.90;99.90;;;;;;5053804;28;20303;-88
2022/10/19 11:04:57;;;;;;;;;;;11.40;99.90;;;;;;5057211;28;19928;-87
2022/10/19 11:07:25;;;;;;;;;;;13.10;99.90;;;;;;5056789;28;20580;-87
2022/10/19 11:09:50;;;;;;;;;;;13.00;99.90;;;;;;5054948;28;19928;-86
2022/10/19 11:12:18;;;;;;;;;;;13.10;99.90;;;;;;5073907;28;20027;-85
2022/10/19 11:14:45;;;;;;;;;;;13.10;99.90;;;;;;5074253;28;20239;-87
2022/10/19 11:17:15;;;;;;;;;;;13.20;99.90;;;;;;5056351;28;19931;-86
2022/10/19 11:19:43;;;;;;;;;;;13.20;99.90;;;;;;5057019;28;20448;-86
2022/10/19 11:22:21;;;;;;;;;;;13.60;99.90;;;;;;5073495;28;19972;-87
2022/10/19 11:24:52;;;;;;;;;;;13.20;99.90;;;;;;5072964;28;20363;-87
2022/10/19 11:27:27;;;;;;;;;;;13.10;99.90;;;;;;5047368;28;19951;-89
2022/10/19 11:30:08;;;;;;;;;;;13.10;99.90;;;;;;5056112;28;19931;-89
2022/10/19 11:32:53;;;;;;;;;;;13.60;99.90;;;;;;5052677;28;19982;-88
2022/10/19 11:35:18;;;;;;;;;;;13.00;99.90;;;;;;5049589;28;19924;-89
2022/10/19 11:37:54;;;;;;;;;;;12.00;99.90;;;;;;5056052;28;19982;-88
2022/10/19 11:40:25;;;;;;;;;;;13.00;99.90;;;;;;5053020;28;19928;-89
2022/10/19 11:42:51;;;;;;;;;;;13.10;99.90;;;;;;5047443;28;19935;-88
2022/10/19 11:45:35;;;;;;;;;;;13.20;99.90;;;;;;5054548;28;19928;-87
2022/10/19 11:48:22;;;;;;;;;;;13.30;99.90;;;;;;5051864;28;19976;-87
2022/10/19 11:51:08;;;;;;;;;;;13.40;99.90;;;;;;5051615;28;19928;-87
2022/10/19 11:53:41;;;;;;;;;;;13.40;99.90;;;;;;5069545;28;19924;-88
2022/10/19 11:56:19;;;;;;;;;;;13.40;99.90;;;;;;5056192;28;19977;-86
2022/10/19 11:58:57;;;;;;;;;;;13.40;99.90;;;;;;5051254;28;19966;-86
2022/10/19 12:01:42;;;;;;;;;;;13.40;99.90;;;;;;5055627;28;19973;-86
2022/10/19 12:04:39;;;;;;;;;;;13.50;99.90;;;;;;5052400;28;20002;-87
2022/10/19 12:07:31;;;;;;;;;;;13.60;99.90;;;;;;4984760;28;19968;-87
2022/10/19 12:10:01;;;;;;;;;;;13.60;99.90;;;;;;5049957;28;19970;-87
2022/10/19 12:12:29;;;;;;;;;;;13.60;99.90;;;;;;5066597;28;19928;-86
2022/10/19 12:15:02;;;;;;;;;;;13.50;99.90;;;;;;5049798;28;19928;-89
2022/10/19 12:17:32;;;;;;;;;;;13.40;99.90;;;;;;5045411;28;20042;-90
2022/10/19 12:20:01;;;;;;;;;;;13.30;99.90;;;;;;5071542;28;20257;-90
2022/10/19 12:22:28;;;;;;;;;;;13.10;99.90;;;;;;5068901;28;20272;-89
2022/10/19 12:24:54;;;;;;;;;;;13.00;99.90;;;;;;5056285;28;19924;-89
2022/10/19 12:27:25;;;;;;;;;;;13.10;99.90;;;;;;5040169;28;20059;-90
2022/10/19 12:29:54;;;;;;;;;;;13.10;99.90;;;;;;5049802;28;19932;-90
2022/10/19 12:32:20;;;;;;;;;;;13.00;99.90;;;;;;5037541;28;19936;-88
2022/10/19 12:35:02;;;;;;;;;;;13.00;99.90;;;;;;5058379;28;19924;-88
2022/10/19 12:37:36;;;;;;;;;;;13.00;99.90;;;;;;5058602;28;19924;-86
2022/10/19 12:40:29;;;;;;;;;;;12.00;99.90;;;;;;5048959;28;20358;-87
2022/10/19 12:43:03;;;;;;;;;;;13.20;99.90;;;;;;5035142;28;20277;-87
2022/10/19 12:45:33;;;;;;;;;;;13.30;99.90;;;;;;5056007;28;19931;-86
2022/10/19 12:48:11;;;;;;;;;;;13.50;99.90;;;;;;5048463;28;19925;-86
2022/10/19 12:50:49;;;;;;;;;;;13.70;99.90;;;;;;5058219;28;19929;-87
2022/10/19 12:53:25;;;;;;;;;;;13.80;99.90;;;;;;5057447;28;20375;-86
2022/10/19 12:56:05;;;;;;;;;;;13.90;99.90;;;;;;5057736;28;19936;-87
2022/10/19 12:58:34;;;;;;;;;;;14.10;99.90;;;;;;5057249;28;19931;-85
2022/10/19 13:01:03;;;;;;;;;;;14.20;99.90;;;;;;5074583;28;19927;-85
2022/10/19 13:03:44;;;;;;;;;;;14.30;99.90;;;;;;5056308;28;19932;-86
2022/10/19 13:06:12;;;;;;;;;;;14.40;99.90;;;;;;5052710;28;19935;-87
2022/10/19 13:08:42;;;;;;;;;;;14.50;99.90;;;;;;5063195;28;19928;-86
2022/10/19 13:11:13;;;;;;;;;;;14.50;99.90;;;;;;5057709;28;20005;-87
2022/10/19 13:13:57;;;;;;;;;;;14.40;99.90;;;;;;5056015;28;19938;-86
2022/10/19 13:16:29;;;;;;;;;;;14.40;99.90;;;;;;5053078;28;19982;-86
2022/10/19 13:19:13;;;;;;;;;;;14.20;99.90;;;;;;5055386;28;19932;-85
2022/10/19 13:21:42;;;;;;;;;;;14.30;99.90;;;;;;5054295;28;19928;-87
2022/10/19 13:24:34;;;;;;;;;;;14.30;99.90;;;;;;5056970;28;20352;-87
2022/10/19 13:27:02;;;;;;;;;;;14.10;99.90;;;;;;5069735;28;19931;-86
2022/10/19 13:29:37;;;;;;;;;;;13.90;99.90;;;;;;5051213;28;19935;-85
2022/10/19 13:32:22;;;;;;;;;;;13.70;99.90;;;;;;5054041;28;20037;-86
2022/10/19 13:34:51;;;;;;;;;;;13.50;99.90;;;;;;5054584;28;19924;-89
2022/10/19 13:37:17;;;;;;;;;;;13.40;99.90;;;;;;5071628;28;20046;-89
2022/10/19 13:39:43;;;;;;;;;;;13.30;99.90;;;;;;5054983;28;20065;-88
2022/10/19 13:42:22;;;;;;;;;;;13.30;99.90;;;;;;5051643;28;20411;-88
2022/10/19 13:44:51;;;;;;;;;;;13.30;99.90;;;;;;5048039;28;19931;-88
2022/10/19 13:47:26;;;;;;;;;;;13.20;99.90;;;;;;5052252;28;19930;-88
2022/10/19 13:50:13;;;;;;;;;;;13.20;99.90;;;;;;5047748;28;20942;-92
2022/10/19 13:52:45;;;;;;;;;;;13.20;99.90;;;;;;5052530;28;19924;-90
2022/10/19 13:55:24;;;;;;;;;;;13.30;99.90;;;;;;5053585;28;19928;-90
2022/10/19 13:57:56;;;;;;;;;;;13.20;99.90;;;;;;5051593;28;20360;-89
2022/10/19 14:00:36;;;;;;;;;;;13.20;99.90;;;;;;5054301;28;19931;-88
2022/10/19 14:03:05;;;;;;;;;;;13.20;99.90;;;;;;5055870;28;20019;-87
2022/10/19 14:05:33;;;;;;;;;;;13.10;99.90;;;;;;5066298;28;19928;-88
2022/10/19 14:08:17;;;;;;;;;;;13.00;99.90;;;;;;5057586;28;19924;-89
2022/10/19 14:10:45;;;;;;;;;;;13.00;99.90;;;;;;5072735;28;20394;-87
2022/10/19 14:13:12;;;;;;;;;;;12.90;99.90;;;;;;5074747;28;19974;-86
2022/10/19 14:15:40;;;;;;;;;;;12.90;99.90;;;;;;5049113;28;19981;-88
2022/10/19 14:18:23;;;;;;;;;;;12.80;99.90;;;;;;5056594;28;19975;-86
2022/10/19 14:20:56;;;;;;;;;;;12.90;99.90;;;;;;5057608;28;19935;-86
2022/10/19 14:23:23;;;;;;;;;;;12.90;99.90;;;;;;5070364;28;19924;-88
2022/10/19 14:25:51;;;;;;;;;;;12.80;99.90;;;;;;5057692;28;19924;-86
2022/10/19 14:28:17;;;;;;;;;;;12.80;99.90;;;;;;5057980;28;19924;-88
2022/10/19 14:30:43;;;;;;;;;;;12.80;99.90;;;;;;5056608;28;20424;-89
2022/10/19 14:33:09;;;;;;;;;;;12.80;99.90;;;;;;5057696;28;19939;-87
2022/10/19 14:35:39;;;;;;;;;;;12.80;99.90;;;;;;5067090;28;19981;-91
2022/10/19 14:38:06;;;;;;;;;;;12.80;99.90;;;;;;5056466;28;19924;-89
2022/10/19 14:40:33;;;;;;;;;;;12.80;99.90;;;;;;5057329;28;19970;-90
2022/10/19 14:43:02;;;;;;;;;;;12.80;99.90;;;;;;5056998;28;19929;-88
2022/10/19 14:45:29;;;;;;;;;;;12.80;99.90;;;;;;5057787;28;19924;-88
2022/10/19 14:47:59;;;;;;;;;;;12.80;99.90;;;;;;5074569;28;19928;-87
2022/10/19 14:50:28;;;;;;;;;;;12.80;99.90;;;;;;5055132;28;19930;-88
2022/10/19 14:52:57;;;;;;;;;;;12.70;99.90;;;;;;5056950;28;19963;-87